Time;durP1;ratioP1;P1;durP2;ratioP2;P2;SDS_P1;SDS_P2;PMS_P1;PMS_P2;Temp;Humidity;BMP_temperature;BMP_pressure;BME280_temperature;BME280_humidity;BME280_pressure;Samples;Min_cycle;Max_cycle;Signal;HPM_P1;HPM_P2
2022/10/10 00:01:19;;;;;;;;;;;;;;;13.48;59.93;100678.13;4365061;32;19987;-85
2022/10/10 00:03:44;;;;;;;;;;;;;;;13.49;59.94;100682.47;4364897;32;20006;-84
2022/10/10 00:06:09;;;;;;;;;;;;;;;13.48;59.92;100684.19;4378187;32;19975;-84
2022/10/10 00:08:35;;;;;;;;;;;;;;;13.45;59.93;100686.06;4352268;32;20018;-83
2022/10/10 00:11:00;;;;;;;;;;;;;;;13.44;59.93;100681.72;4378510;32;19991;-84
2022/10/10 00:13:25;;;;;;;;;;;;;;;13.49;59.94;100680.72;4364151;32;29582;-85
2022/10/10 00:15:50;;;;;;;;;;;;;;;13.50;59.93;100678.97;4377809;32;30283;-85
2022/10/10 00:18:16;;;;;;;;;;;;;;;13.45;59.93;100673.84;4364121;32;29280;-85
2022/10/10 00:20:41;;;;;;;;;;;;;;;13.45;59.93;100679.06;4378566;32;19979;-87
2022/10/10 00:23:06;;;;;;;;;;;;;;;13.33;59.92;100670.72;4377510;32;34512;-87
2022/10/10 00:25:32;;;;;;;;;;;;;;;13.36;59.93;100674.09;4364751;32;20014;-88
2022/10/10 00:27:59;;;;;;;;;;;;;;;13.23;59.92;100669.25;4378277;32;20002;-86
2022/10/10 00:30:25;;;;;;;;;;;;;;;13.22;59.91;100665.78;4364566;32;20050;-86
2022/10/10 00:32:50;;;;;;;;;;;;;;;13.28;59.92;100668.25;4363983;32;30030;-86
2022/10/10 00:35:15;;;;;;;;;;;;;;;13.25;59.92;100668.34;4378309;32;20015;-87
2022/10/10 00:37:40;;;;;;;;;;;;;;;13.17;59.91;100663.31;4364644;32;20074;-86
2022/10/10 00:40:06;;;;;;;;;;;;;;;13.21;59.92;100666.69;4364090;32;26139;-86
2022/10/10 00:42:31;;;;;;;;;;;;;;;13.14;59.92;100660.75;4364630;32;20049;-86
2022/10/10 00:45:15;;;;;;;;;;;;;;;13.26;59.92;100653.50;4377831;32;22072;-86
2022/10/10 00:47:40;;;;;;;;;;;;;;;13.20;59.92;100659.75;4378531;32;19974;-85
2022/10/10 00:50:05;;;;;;;;;;;;;;;13.16;59.91;100656.34;4364175;32;33561;-85
2022/10/10 00:52:31;;;;;;;;;;;;;;;13.12;59.92;100651.25;4364822;32;20019;-85
2022/10/10 00:54:56;;;;;;;;;;;;;;;13.07;59.91;100645.28;4378102;32;34019;-86
2022/10/10 00:57:21;;;;;;;;;;;;;;;13.11;59.92;100642.53;4365136;32;19987;-86
2022/10/10 00:59:47;;;;;;;;;;;;;;;13.11;59.92;100646.91;4364705;32;26273;-87
2022/10/10 01:02:12;;;;;;;;;;;;;;;13.14;59.91;100639.84;4376601;32;19995;-86
2022/10/10 01:04:38;;;;;;;;;;;;;;;13.02;59.90;100634.13;4364527;32;29833;-86
2022/10/10 01:07:04;;;;;;;;;;;;;;;13.00;59.90;100630.66;4352108;32;19986;-86
2022/10/10 01:09:30;;;;;;;;;;;;;;;13.00;59.91;100634.13;4363880;32;19994;-86
2022/10/10 01:12:07;;;;;;;;;;;;;;;13.04;59.91;100634.94;4363818;32;19975;-86
2022/10/10 01:14:42;;;;;;;;;;;;;;;13.12;59.91;100639.03;4364275;32;19979;-86
2022/10/10 01:17:11;;;;;;;;;;;;;;;13.04;59.91;100629.69;4364395;32;19991;-86
2022/10/10 01:19:42;;;;;;;;;;;;;;;12.91;59.90;100634.41;4364381;32;20007;-86
2022/10/10 01:22:11;;;;;;;;;;;;;;;12.98;59.90;100635.06;4364293;32;20096;-86
2022/10/10 01:24:36;;;;;;;;;;;;;;;12.89;59.90;100631.81;4364204;32;19997;-86
2022/10/10 01:27:09;;;;;;;;;;;;;;;12.91;59.90;100634.41;4378116;32;20265;-86
2022/10/10 01:29:34;;;;;;;;;;;;;;;12.94;59.90;100634.31;4364410;32;20004;-86
2022/10/10 01:32:02;;;;;;;;;;;;;;;12.87;59.89;100633.63;4364074;32;20003;-85
2022/10/10 01:34:48;;;;;;;;;;;;;;;12.82;59.90;100632.91;4364405;32;19981;-86
2022/10/10 01:37:20;;;;;;;;;;;;;;;12.80;59.89;100626.00;4377602;32;19987;-85
2022/10/10 01:39:48;;;;;;;;;;;;;;;12.81;59.90;100622.50;4364501;32;20332;-85
2022/10/10 01:42:15;;;;;;;;;;;;;;;12.83;59.90;100616.31;4378083;32;19990;-86
2022/10/10 01:44:44;;;;;;;;;;;;;;;12.71;59.88;100621.88;4364352;32;19975;-86
2022/10/10 01:47:10;;;;;;;;;;;;;;;12.82;59.90;100618.97;4364330;32;20037;-86
2022/10/10 01:49:35;;;;;;;;;;;;;;;12.77;59.89;100615.63;4377941;32;19975;-85
2022/10/10 01:52:19;;;;;;;;;;;;;;;12.69;59.89;100618.44;4363453;32;29336;-85
2022/10/10 01:54:55;;;;;;;;;;;;;;;12.75;59.89;100618.25;4363972;32;20025;-84
2022/10/10 01:57:47;;;;;;;;;;;;;;;12.64;59.88;100617.72;4364050;32;20066;-84
2022/10/10 02:00:15;;;;;;;;;;;;;;;12.79;59.89;100621.69;4360114;32;20004;-85
2022/10/10 02:02:49;;;;;;;;;;;;;;;12.78;59.89;100626.06;4364419;32;20047;-85
2022/10/10 02:05:14;;;;;;;;;;;;;;;12.75;59.89;100631.31;4364279;32;20017;-85
2022/10/10 02:07:49;;;;;;;;;;;;;;;12.77;59.89;100623.44;4377805;32;19986;-85
2022/10/10 02:10:17;;;;;;;;;;;;;;;12.75;59.90;100625.25;4363910;32;20007;-86
2022/10/10 02:12:42;;;;;;;;;;;;;;;12.66;59.89;100620.28;4364030;32;20339;-85
2022/10/10 02:15:09;;;;;;;;;;;;;;;12.71;59.88;100626.22;4363171;32;35456;-86
2022/10/10 02:17:34;;;;;;;;;;;;;;;12.78;59.89;100623.44;4364228;32;19990;-86
2022/10/10 02:20:00;;;;;;;;;;;;;;;12.69;59.89;100623.66;4364255;32;20002;-87
2022/10/10 02:22:25;;;;;;;;;;;;;;;12.74;59.89;100621.78;4363923;32;19987;-86
2022/10/10 02:24:50;;;;;;;;;;;;;;;12.75;59.90;100620.03;4352016;32;19997;-86
2022/10/10 02:27:33;;;;;;;;;;;;;;;12.75;59.89;100622.63;4369179;32;19998;-86
2022/10/10 02:29:58;;;;;;;;;;;;;;;12.71;59.88;100621.88;4369310;32;20021;-86
2022/10/10 02:32:46;;;;;;;;;;;;;;;12.74;59.89;100615.69;4350931;32;30781;-86
2022/10/10 02:35:16;;;;;;;;;;;;;;;12.67;59.89;100627.22;4363844;32;19998;-85
2022/10/10 02:37:41;;;;;;;;;;;;;;;12.68;59.89;100621.94;4363816;32;19999;-86
2022/10/10 02:40:07;;;;;;;;;;;;;;;12.69;59.89;100623.66;4363635;32;19986;-86
2022/10/10 02:42:33;;;;;;;;;;;;;;;12.77;59.89;100620.84;4363639;32;19991;-85
2022/10/10 02:44:58;;;;;;;;;;;;;;;12.70;59.89;100619.28;4363530;32;19967;-85
2022/10/10 02:47:23;;;;;;;;;;;;;;;12.68;59.89;100621.94;4351134;32;20309;-86
2022/10/10 02:49:49;;;;;;;;;;;;;;;12.77;59.89;100619.06;4376643;32;31287;-85
2022/10/10 02:52:14;;;;;;;;;;;;;;;12.72;59.89;100617.50;4363558;32;19975;-84
2022/10/10 02:54:39;;;;;;;;;;;;;;;12.62;59.89;100624.72;4363646;32;20261;-86
2022/10/10 02:57:05;;;;;;;;;;;;;;;12.66;59.89;100622.91;4363374;32;19994;-85
2022/10/10 02:59:30;;;;;;;;;;;;;;;12.61;59.88;100612.56;4363359;32;19999;-85
2022/10/10 03:01:55;;;;;;;;;;;;;;;12.62;59.89;100614.28;4376196;32;34977;-87
2022/10/10 03:04:20;;;;;;;;;;;;;;;12.62;59.88;100610.81;4350415;32;28486;-87
2022/10/10 03:06:45;;;;;;;;;;;;;;;12.56;59.88;100612.69;4376298;32;32345;-86
2022/10/10 03:09:11;;;;;;;;;;;;;;;12.59;59.89;100612.63;4362295;32;34895;-86
2022/10/10 03:11:36;;;;;;;;;;;;;;;12.57;59.89;100614.41;4363329;32;20031;-87
2022/10/10 03:14:01;;;;;;;;;;;;;;;12.57;59.88;100614.41;4362196;32;34630;-85
2022/10/10 03:16:26;;;;;;;;;;;;;;;12.54;59.88;100613.66;4362851;32;20376;-87
2022/10/10 03:18:51;;;;;;;;;;;;;;;12.59;59.89;100616.97;4349974;32;27182;-86
2022/10/10 03:21:17;;;;;;;;;;;;;;;12.56;59.88;100615.31;4350038;32;27360;-87
2022/10/10 03:23:42;;;;;;;;;;;;;;;12.54;59.88;100614.50;4376784;32;20222;-85
2022/10/10 03:26:07;;;;;;;;;;;;;;;12.37;59.88;100610.59;4349698;32;39635;-85
2022/10/10 03:28:32;;;;;;;;;;;;;;;12.37;59.88;100610.59;4375892;32;36531;-83
2022/10/10 03:30:58;;;;;;;;;;;;;;;12.46;59.88;100610.34;4375790;32;34027;-84
2022/10/10 03:33:23;;;;;;;;;;;;;;;12.55;59.88;100610.13;4362530;32;36140;-85
2022/10/10 03:35:48;;;;;;;;;;;;;;;12.52;59.89;100604.97;4378502;32;20000;-85
2022/10/10 03:38:13;;;;;;;;;;;;;;;12.50;59.89;100602.41;4364394;32;28313;-85
2022/10/10 03:40:41;;;;;;;;;;;;;;;12.57;59.89;100614.41;4365054;32;20078;-85
2022/10/10 03:43:07;;;;;;;;;;;;;;;12.40;59.87;100607.91;4378848;32;20006;-85
2022/10/10 03:45:32;;;;;;;;;;;;;;;12.49;59.87;100607.66;4378822;32;19990;-85
2022/10/10 03:47:57;;;;;;;;;;;;;;;12.51;59.88;100609.31;4364330;32;35292;-84
2022/10/10 03:50:23;;;;;;;;;;;;;;;12.45;59.87;100608.62;4364759;32;20735;-85
2022/10/10 03:52:48;;;;;;;;;;;;;;;12.37;59.87;100610.59;4378920;32;28060;-84
2022/10/10 03:55:14;;;;;;;;;;;;;;;12.40;59.87;100603.53;4384414;32;20006;-85
2022/10/10 03:57:39;;;;;;;;;;;;;;;12.44;59.88;100599.94;4379595;32;20002;-85
2022/10/10 04:00:05;;;;;;;;;;;;;;;12.50;59.88;100601.53;4377833;32;29575;-84
2022/10/10 04:02:30;;;;;;;;;;;;;;;12.48;59.88;100603.34;4364896;32;19994;-84
2022/10/10 04:04:55;;;;;;;;;;;;;;;12.45;59.88;100604.28;4352429;32;20022;-84
2022/10/10 04:07:21;;;;;;;;;;;;;;;12.43;59.88;100600.84;4378601;32;20014;-85
2022/10/10 04:09:46;;;;;;;;;;;;;;;12.47;59.88;100601.62;4363935;32;31885;-86
2022/10/10 04:12:11;;;;;;;;;;;;;;;12.50;59.89;100599.78;4378479;32;20017;-84
2022/10/10 04:14:36;;;;;;;;;;;;;;;12.51;59.88;100598.03;4377808;32;29400;-85
2022/10/10 04:17:02;;;;;;;;;;;;;;;12.49;59.87;100599.81;4351417;32;37848;-85
2022/10/10 04:19:27;;;;;;;;;;;;;;;12.48;59.88;100605.94;4364705;32;19974;-86
2022/10/10 04:21:52;;;;;;;;;;;;;;;12.41;59.87;100600.03;4351807;32;22638;-85
2022/10/10 04:24:17;;;;;;;;;;;;;;;12.41;59.87;100604.41;4352221;32;20049;-85
2022/10/10 04:26:42;;;;;;;;;;;;;;;12.37;59.87;100601.00;4351526;32;27537;-85
2022/10/10 04:29:08;;;;;;;;;;;;;;;12.38;59.87;100599.25;4351426;32;31954;-85
2022/10/10 04:31:33;;;;;;;;;;;;;;;12.39;59.87;100599.22;4377542;32;32963;-84
2022/10/10 04:33:58;;;;;;;;;;;;;;;12.40;59.87;100600.94;4378119;32;19987;-85
2022/10/10 04:36:23;;;;;;;;;;;;;;;12.35;59.88;100592.38;4364671;32;20312;-85
2022/10/10 04:38:49;;;;;;;;;;;;;;;12.35;59.87;100599.34;4364749;32;20327;-85
2022/10/10 04:41:14;;;;;;;;;;;;;;;12.31;59.87;100603.78;4364767;32;19995;-85
2022/10/10 04:43:39;;;;;;;;;;;;;;;12.24;59.87;100602.22;4351047;32;36528;-84
2022/10/10 04:46:04;;;;;;;;;;;;;;;12.34;59.87;100605.47;4377833;32;20021;-84
2022/10/10 04:48:30;;;;;;;;;;;;;;;12.32;59.87;100610.72;4363748;32;31925;-85
2022/10/10 04:50:56;;;;;;;;;;;;;;;12.40;59.87;100613.13;4351994;32;20336;-84
2022/10/10 04:53:21;;;;;;;;;;;;;;;12.33;59.87;100601.12;4364323;32;20009;-85
2022/10/10 04:55:46;;;;;;;;;;;;;;;12.37;59.87;100608.00;4377329;32;28491;-85
2022/10/10 04:58:12;;;;;;;;;;;;;;;12.27;59.86;100609.97;4381585;32;20233;-84
2022/10/10 05:00:39;;;;;;;;;;;;;;;12.28;59.87;100607.31;4367572;32;20002;-84
2022/10/10 05:03:04;;;;;;;;;;;;;;;12.38;59.87;100614.94;4379494;32;20002;-84
2022/10/10 05:05:29;;;;;;;;;;;;;;;12.42;59.87;100613.94;4364262;32;20042;-84
2022/10/10 05:07:54;;;;;;;;;;;;;;;12.39;59.87;100612.28;4351796;32;20007;-84
2022/10/10 05:10:20;;;;;;;;;;;;;;;12.35;59.87;100609.78;4363144;32;34085;-84
2022/10/10 05:12:45;;;;;;;;;;;;;;;12.31;59.87;100616.00;4377789;32;20001;-85
2022/10/10 05:15:10;;;;;;;;;;;;;;;12.41;59.87;100604.41;4377261;32;27785;-85
2022/10/10 05:17:35;;;;;;;;;;;;;;;12.58;59.89;100604.81;4364725;32;20337;-84
2022/10/10 05:20:00;;;;;;;;;;;;;;;12.47;59.87;100612.91;4382298;32;30389;-85
2022/10/10 05:22:26;;;;;;;;;;;;;;;12.40;59.87;100602.69;4381367;32;33766;-85
2022/10/10 05:24:51;;;;;;;;;;;;;;;12.48;59.87;100608.56;4377625;32;23964;-85
2022/10/10 05:27:16;;;;;;;;;;;;;;;12.55;59.88;100607.53;4363729;32;28327;-84
2022/10/10 05:29:41;;;;;;;;;;;;;;;12.49;59.87;100613.75;4363479;32;35213;-84
2022/10/10 05:32:06;;;;;;;;;;;;;;;12.48;59.87;100614.62;4363372;32;31826;-84
2022/10/10 05:34:32;;;;;;;;;;;;;;;12.64;59.88;100615.09;4377228;32;33756;-84
2022/10/10 05:36:57;;;;;;;;;;;;;;;12.63;59.88;100616.00;4364091;32;20009;-85
2022/10/10 05:39:22;;;;;;;;;;;;;;;12.77;59.89;100613.00;4364301;32;20030;-84
2022/10/10 05:41:47;;;;;;;;;;;;;;;12.72;59.88;100612.28;4378082;32;20033;-84
2022/10/10 05:44:13;;;;;;;;;;;;;;;12.98;59.90;100616.78;4363454;32;24757;-85
2022/10/10 05:46:38;;;;;;;;;;;;;;;12.99;59.91;100616.72;4363303;32;32385;-83
2022/10/10 05:49:03;;;;;;;;;;;;;;;12.95;59.90;100617.72;4364068;32;20342;-84
2022/10/10 05:51:28;;;;;;;;;;;;;;;13.15;59.91;100618.03;4377520;32;28267;-84
2022/10/10 05:53:54;;;;;;;;;;;;;;;13.08;59.91;100619.09;4363430;32;31914;-85
2022/10/10 05:56:19;;;;;;;;;;;;;;;13.27;59.92;100621.22;4351183;32;20333;-85
2022/10/10 05:58:44;;;;;;;;;;;;;;;13.35;59.92;100619.25;4363341;32;24454;-85
2022/10/10 06:01:10;;;;;;;;;;;;;;;13.41;59.92;100619.91;4363170;32;36070;-86
2022/10/10 06:03:35;;;;;;;;;;;;;;;13.47;59.93;100629.31;4377100;32;28634;-86
2022/10/10 06:06:00;;;;;;;;;;;;;;;13.49;59.94;100630.16;4363911;32;19995;-85
2022/10/10 06:08:25;;;;;;;;;;;;;;;13.60;59.93;100622.84;4363942;32;19967;-85
2022/10/10 06:10:51;;;;;;;;;;;;;;;13.78;59.94;100619.66;4353397;32;794291;-85
2022/10/10 06:13:16;;;;;;;;;;;;;;;13.62;59.94;100615.78;4363884;32;19998;-86
2022/10/10 06:15:41;;;;;;;;;;;;;;;13.85;59.95;100619.44;4363911;32;20010;-86
2022/10/10 06:18:07;;;;;;;;;;;;;;;13.83;59.95;100622.12;4377792;32;20098;-86
2022/10/10 06:20:35;;;;;;;;;;;;;;;14.04;59.97;100612.72;4377709;32;20313;-85
2022/10/10 06:23:01;;;;;;;;;;;;;;;14.08;59.96;100611.72;4364004;32;20042;-85
2022/10/10 06:25:26;;;;;;;;;;;;;;;14.21;59.97;100609.56;4363637;32;19971;-86
2022/10/10 06:27:51;;;;;;;;;;;;;;;14.22;59.97;100609.53;4376696;32;35216;-87
2022/10/10 06:30:16;;;;;;;;;;;;;;;14.29;59.98;100618.88;4363013;32;31558;-86
2022/10/10 06:32:42;;;;;;;;;;;;;;;14.29;59.98;100615.41;4377714;32;20013;-84
2022/10/10 06:35:07;;;;;;;;;;;;;;;14.38;59.98;100610.69;4377482;32;20312;-86
2022/10/10 06:37:32;;;;;;;;;;;;;;;14.43;59.98;100606.22;4377572;32;19978;-85
2022/10/10 06:39:58;;;;;;;;;;;;;;;14.49;59.99;100607.75;4376973;32;33908;-87
2022/10/10 06:42:23;;;;;;;;;;;;;;;14.56;59.99;100605.78;4377798;32;19974;-87
2022/10/10 06:44:49;;;;;;;;;;;;;;;14.60;59.99;100603.00;4378271;32;24688;-86
2022/10/10 06:47:14;;;;;;;;;;;;;;;14.60;59.99;100608.22;4358865;32;31717;-86
2022/10/10 06:49:46;;;;;;;;;;;;;;;14.66;60.00;100610.63;4378209;32;20245;-86
2022/10/10 06:52:11;;;;;;;;;;;;;;;14.78;60.01;100614.59;4351063;32;20348;-86
2022/10/10 06:54:36;;;;;;;;;;;;;;;14.95;60.01;100614.84;4376567;32;33010;-85
2022/10/10 06:57:01;;;;;;;;;;;;;;;14.97;60.01;100610.41;4362577;32;35489;-86
2022/10/10 06:59:27;;;;;;;;;;;;;;;14.86;60.00;100607.31;4363258;32;19995;-86
2022/10/10 07:01:52;;;;;;;;;;;;;;;14.87;60.01;100613.41;4362898;32;26359;-86
2022/10/10 07:04:17;;;;;;;;;;;;;;;14.99;60.01;100607.72;4350125;32;36353;-86
2022/10/10 07:06:42;;;;;;;;;;;;;;;15.03;60.02;100607.56;4362682;32;31517;-87
2022/10/10 07:09:07;;;;;;;;;;;;;;;15.08;60.01;100603.91;4351177;32;34977;-86
2022/10/10 07:11:33;;;;;;;;;;;;;;;15.09;60.02;100611.72;4365343;32;19998;-85
2022/10/10 07:13:58;;;;;;;;;;;;;;;15.06;60.02;100617.06;4365134;32;19999;-85
2022/10/10 07:16:23;;;;;;;;;;;;;;;15.17;60.03;100614.06;4364933;32;19970;-85
2022/10/10 07:18:48;;;;;;;;;;;;;;;15.27;60.03;100607.56;4378896;32;20304;-86
2022/10/10 07:21:14;;;;;;;;;;;;;;;15.24;60.03;100613.78;4378145;32;35434;-85
2022/10/10 07:23:39;;;;;;;;;;;;;;;15.26;60.03;100616.34;4378884;32;20336;-86
2022/10/10 07:26:10;;;;;;;;;;;;;;;15.23;60.04;100613.84;4365011;32;20021;-86
2022/10/10 07:28:36;;;;;;;;;;;;;;;15.32;60.04;100618.72;4365004;32;19991;-86
2022/10/10 07:31:02;;;;;;;;;;;;;;;15.22;60.03;100614.75;4352533;32;20292;-85
2022/10/10 07:33:31;;;;;;;;;;;;;;;15.22;60.02;100614.75;4365098;32;20045;-86
2022/10/10 07:35:57;;;;;;;;;;;;;;;15.33;60.03;100618.66;4352799;32;20016;-85
2022/10/10 07:38:22;;;;;;;;;;;;;;;15.42;60.04;100614.88;4377832;32;34880;-85
2022/10/10 07:40:47;;;;;;;;;;;;;;;15.56;60.05;100614.31;4364292;32;31494;-85
2022/10/10 07:43:13;;;;;;;;;;;;;;;15.65;60.05;100614.88;4351993;32;27234;-86
2022/10/10 07:45:38;;;;;;;;;;;;;;;15.70;60.06;100609.44;4352610;32;20002;-86
2022/10/10 07:48:03;;;;;;;;;;;;;;;15.86;60.06;100609.69;4364224;32;33779;-88
2022/10/10 07:50:29;;;;;;;;;;;;;;;16.11;60.07;100610.41;4352578;32;20102;-86
2022/10/10 07:52:54;;;;;;;;;;;;;;;16.00;60.08;100604.72;4365106;32;19975;-87
2022/10/10 07:55:19;;;;;;;;;;;;;;;16.03;60.07;100604.59;4363849;32;36934;-87
2022/10/10 07:57:44;;;;;;;;;;;;;;;16.04;60.07;100603.66;4365175;32;20005;-87
2022/10/10 08:00:10;;;;;;;;;;;;;;;15.96;60.07;100608.38;4364931;32;20367;-87
2022/10/10 08:02:35;;;;;;;;;;;;;;;15.97;60.07;100604.84;4365129;32;19986;-87
2022/10/10 08:05:00;;;;;;;;;;;;;;;16.08;60.08;100601.75;4364324;32;36625;-87
2022/10/10 08:07:26;;;;;;;;;;;;;;;16.30;60.08;100601.72;4365047;32;23695;-88
2022/10/10 08:09:51;;;;;;;;;;;;;;;16.19;60.08;100600.41;4366499;32;20312;-87
2022/10/10 08:12:16;;;;;;;;;;;;;;;16.34;60.09;100605.97;4375625;32;37260;-88
2022/10/10 08:14:41;;;;;;;;;;;;;;;16.42;60.09;100595.97;4364801;32;20034;-87
2022/10/10 08:17:06;;;;;;;;;;;;;;;16.45;60.09;100603.72;4378049;32;32841;-87
2022/10/10 08:19:32;;;;;;;;;;;;;;;16.47;60.10;100608.00;4351331;32;36018;-87
2022/10/10 08:21:57;;;;;;;;;;;;;;;16.56;60.10;100598.84;4377660;32;32794;-87
2022/10/10 08:24:22;;;;;;;;;;;;;;;16.64;60.11;100586.25;4377707;32;29402;-87
2022/10/10 08:26:49;;;;;;;;;;;;;;;16.78;60.11;100598.78;4378420;32;20018;-87
2022/10/10 08:29:14;;;;;;;;;;;;;;;16.87;60.12;100593.16;4378581;32;20006;-87
2022/10/10 08:31:40;;;;;;;;;;;;;;;16.73;60.11;100585.84;4363627;32;35847;-86
2022/10/10 08:34:05;;;;;;;;;;;;;;;16.86;60.11;100586.19;4378386;32;20214;-88
2022/10/10 08:36:30;;;;;;;;;;;;;;;17.09;60.13;100595.69;4363864;32;33972;-87
2022/10/10 08:39:00;;;;;;;;;;;;;;;17.01;60.12;100590.75;4364433;32;19983;-87
2022/10/10 08:41:25;;;;;;;;;;;;;;;17.09;60.13;100585.16;4364510;32;20053;-87
2022/10/10 08:43:51;;;;;;;;;;;;;;;17.11;60.13;100583.31;4378348;32;20451;-87
2022/10/10 08:46:30;;;;;;;;;;;;;;;17.42;60.15;100572.19;4364642;32;20031;-87
2022/10/10 08:48:56;;;;;;;;;;;;;;;17.13;60.13;100579.69;4352180;32;19998;-87
2022/10/10 08:51:25;;;;;;;;;;;;;;;17.37;60.14;100572.41;4378106;32;19990;-87
2022/10/10 08:53:51;;;;;;;;;;;;;;;17.34;60.14;100569.94;4364642;32;20005;-87
2022/10/10 08:56:17;;;;;;;;;;;;;;;17.39;60.15;100567.94;4364538;32;20341;-86
2022/10/10 08:58:46;;;;;;;;;;;;;;;17.51;60.15;100563.88;4364591;32;20024;-88
2022/10/10 09:01:13;;;;;;;;;;;;;;;17.65;60.16;100563.22;4364488;32;19989;-87
2022/10/10 09:03:42;;;;;;;;;;;;;;;17.72;60.16;100565.50;4364576;32;19986;-87
2022/10/10 09:06:13;;;;;;;;;;;;;;;17.93;60.18;100565.38;4364687;32;20389;-87
2022/10/10 09:08:38;;;;;;;;;;;;;;;17.89;60.17;100554.16;4364443;32;20062;-87
2022/10/10 09:11:03;;;;;;;;;;;;;;;17.97;60.18;100554.59;4378135;32;20332;-87
2022/10/10 09:13:29;;;;;;;;;;;;;;;18.11;60.19;100559.19;4378247;32;19975;-87
2022/10/10 09:15:58;;;;;;;;;;;;;;;18.28;60.19;100571.53;4378486;32;19990;-87
2022/10/10 09:18:27;;;;;;;;;;;;;;;18.30;60.20;100552.06;4364507;32;19990;-87
2022/10/10 09:21:13;;;;;;;;;;;;;;;18.47;60.20;100548.56;4364322;32;19993;-86
2022/10/10 09:23:39;;;;;;;;;;;;;;;18.61;60.21;100545.22;4378175;32;19970;-87
2022/10/10 09:26:06;;;;;;;;;;;;;;;18.77;60.23;100542.66;4364494;32;20027;-87
2022/10/10 09:28:43;;;;;;;;;;;;;;;18.91;60.22;100540.97;4364642;32;20018;-87
2022/10/10 09:31:22;;;;;;;;;;;;;;;18.81;60.22;100542.41;4363690;32;19975;-88
2022/10/10 09:33:52;;;;;;;;;;;;;;;18.97;60.22;100545.94;4364880;32;20054;-87
2022/10/10 09:36:18;;;;;;;;;;;;;;;19.02;60.23;100545.69;4369417;32;20018;-87
2022/10/10 09:38:48;;;;;;;;;;;;;;;19.22;60.25;100545.44;4359299;32;20059;-87
2022/10/10 09:41:14;;;;;;;;;;;;;;;19.08;60.24;100537.41;4364449;32;19975;-87
2022/10/10 09:43:39;;;;;;;;;;;;;;;19.19;60.24;100542.97;4364283;32;19987;-88
2022/10/10 09:46:04;;;;;;;;;;;;;;;19.26;60.24;100543.47;4363761;32;28111;-87
2022/10/10 09:48:30;;;;;;;;;;;;;;;19.30;60.24;100537.09;4363355;32;34198;-87
2022/10/10 09:50:56;;;;;;;;;;;;;;;19.23;60.24;100533.94;4364276;32;20031;-88
2022/10/10 09:53:21;;;;;;;;;;;;;;;19.34;60.25;100541.25;4363495;32;30830;-88
2022/10/10 09:55:46;;;;;;;;;;;;;;;19.45;60.25;100540.69;4378468;32;20011;-87
2022/10/10 09:58:25;;;;;;;;;;;;;;;19.56;60.26;100538.31;4364309;32;20014;-87
2022/10/10 10:00:52;;;;;;;;;;;;;;;19.56;60.27;100528.59;4364405;32;19978;-87
2022/10/10 10:03:18;;;;;;;;;;;;;;;19.47;60.26;100530.88;4364463;32;19983;-87
2022/10/10 10:05:56;;;;;;;;;;;;;;;19.71;60.27;100529.50;4364131;32;20004;-88
2022/10/10 10:08:23;;;;;;;;;;;;;;;19.74;60.27;100525.84;4364331;32;20029;-88
2022/10/10 10:10:48;;;;;;;;;;;;;;;19.87;60.28;100526.81;4351546;32;19974;-88
2022/10/10 10:13:13;;;;;;;;;;;;;;;20.03;60.29;100521.50;4377739;32;20017;-88
2022/10/10 10:15:39;;;;;;;;;;;;;;;20.24;60.30;100525.53;4364107;32;20009;-87
2022/10/10 10:18:10;;;;;;;;;;;;;;;20.12;60.29;100524.47;4363585;32;20358;-88
2022/10/10 10:20:42;;;;;;;;;;;;;;;20.22;60.29;100527.41;4363901;32;20489;-87
2022/10/10 10:23:24;;;;;;;;;;;;;;;20.14;60.29;100517.31;4377627;32;19990;-88
2022/10/10 10:25:56;;;;;;;;;;;;;;;20.47;60.32;100517.09;4351630;32;20067;-88
2022/10/10 10:28:21;;;;;;;;;;;;;;;20.43;60.31;100518.22;4364198;32;20391;-88
2022/10/10 10:30:46;;;;;;;;;;;;;;;20.43;60.31;100517.38;4377530;32;20026;-86
2022/10/10 10:33:15;;;;;;;;;;;;;;;20.61;60.32;100510.12;4351480;32;20030;-86
2022/10/10 10:35:41;;;;;;;;;;;;;;;20.70;60.33;100506.91;4363961;32;20371;-87
2022/10/10 10:38:07;;;;;;;;;;;;;;;20.71;60.33;100508.59;4351666;32;19999;-88
2022/10/10 10:40:39;;;;;;;;;;;;;;;20.83;60.33;100503.41;4378373;32;20010;-87
2022/10/10 10:43:07;;;;;;;;;;;;;;;20.90;60.33;100503.84;4363960;32;19979;-86
2022/10/10 10:45:39;;;;;;;;;;;;;;;20.88;60.34;100495.16;4377990;32;20002;-86
2022/10/10 10:48:19;;;;;;;;;;;;;;;21.05;60.34;100487.00;4377877;32;20005;-87
2022/10/10 10:50:47;;;;;;;;;;;;;;;21.14;60.34;100489.06;4377975;32;19991;-88
2022/10/10 10:53:15;;;;;;;;;;;;;;;21.17;60.35;100484.53;4363845;32;20005;-88
2022/10/10 10:55:45;;;;;;;;;;;;;;;21.26;60.36;100479.50;4377706;32;19979;-88
2022/10/10 10:58:14;;;;;;;;;;;;;;;21.27;60.36;100477.72;4363653;32;20070;-87
2022/10/10 11:00:47;;;;;;;;;;;;;;;21.24;60.36;100475.25;4368279;32;20002;-89
2022/10/10 11:03:17;;;;;;;;;;;;;;;21.36;60.36;100475.31;4369146;32;20264;-87
2022/10/10 11:05:54;;;;;;;;;;;;;;;21.41;60.37;100475.88;4363567;32;20022;-87
2022/10/10 11:08:29;;;;;;;;;;;;;;;21.54;60.36;100467.97;4363495;32;20053;-88
2022/10/10 11:10:57;;;;;;;;;;;;;;;21.57;60.37;100469.56;4376982;32;19979;-87
2022/10/10 11:13:25;;;;;;;;;;;;;;;21.72;60.38;100466.72;4377091;32;19993;-88
2022/10/10 11:15:52;;;;;;;;;;;;;;;21.76;60.38;100456.78;4377109;32;19993;-88
2022/10/10 11:18:20;;;;;;;;;;;;;;;21.97;60.40;100457.97;4350973;32;20021;-88
2022/10/10 11:20:46;;;;;;;;;;;;;;;21.97;60.40;100457.97;4363301;32;19994;-88
2022/10/10 11:23:14;;;;;;;;;;;;;;;21.89;60.39;100454.16;4363316;32;20604;-87
2022/10/10 11:25:43;;;;;;;;;;;;;;;21.83;60.39;100449.28;4376817;32;20029;-87
2022/10/10 11:28:10;;;;;;;;;;;;;;;21.99;60.40;100442.81;4363099;32;20053;-87
2022/10/10 11:30:38;;;;;;;;;;;;;;;22.01;60.40;100442.75;4362995;32;19975;-87
2022/10/10 11:33:11;;;;;;;;;;;;;;;22.03;60.40;100438.19;4362826;32;19982;-87
2022/10/10 11:35:41;;;;;;;;;;;;;;;22.07;60.39;100437.03;4363095;32;20570;-87
2022/10/10 11:38:09;;;;;;;;;;;;;;;22.17;60.41;100431.94;4362901;32;20024;-87
2022/10/10 11:40:38;;;;;;;;;;;;;;;22.11;60.40;100427.06;4376635;32;19990;-87
2022/10/10 11:43:09;;;;;;;;;;;;;;;22.21;60.41;100423.66;4362900;32;19991;-87
2022/10/10 11:45:35;;;;;;;;;;;;;;;22.09;60.41;100419.22;4363021;32;20017;-88
2022/10/10 11:48:03;;;;;;;;;;;;;;;21.94;60.38;100420.22;4362891;32;20379;-88
2022/10/10 11:50:29;;;;;;;;;;;;;;;22.05;60.40;100413.28;4362871;32;19971;-87
2022/10/10 11:53:04;;;;;;;;;;;;;;;22.11;60.41;100408.50;4376447;32;19974;-86
2022/10/10 11:55:37;;;;;;;;;;;;;;;21.95;60.40;100414.81;4364346;32;20003;-87
2022/10/10 11:58:05;;;;;;;;;;;;;;;22.07;60.40;100414.97;4365181;32;20280;-87
2022/10/10 12:00:41;;;;;;;;;;;;;;;22.20;60.41;100418.47;4378788;32;19987;-87
2022/10/10 12:03:06;;;;;;;;;;;;;;;22.13;60.40;100412.75;4352388;32;20260;-88
2022/10/10 12:05:37;;;;;;;;;;;;;;;22.13;60.41;100406.59;4352418;32;19994;-88
2022/10/10 12:08:13;;;;;;;;;;;;;;;22.05;60.40;100399.19;4365617;32;20288;-88
2022/10/10 12:10:41;;;;;;;;;;;;;;;22.01;60.40;100393.22;4352294;32;20028;-88
2022/10/10 12:13:15;;;;;;;;;;;;;;;21.98;60.39;100389.91;4365099;32;19991;-88
2022/10/10 12:15:41;;;;;;;;;;;;;;;21.71;60.39;100390.84;4364877;32;19999;-88
2022/10/10 12:18:06;;;;;;;;;;;;;;;21.62;60.38;100385.34;4378512;32;20088;-87
2022/10/10 12:20:32;;;;;;;;;;;;;;;21.67;60.38;100389.37;4378102;32;27264;-88
2022/10/10 12:23:13;;;;;;;;;;;;;;;21.87;60.39;100393.31;4365218;32;19998;-88
2022/10/10 12:25:41;;;;;;;;;;;;;;;21.87;60.39;100388.00;4380403;32;19986;-89
2022/10/10 12:28:12;;;;;;;;;;;;;;;21.87;60.39;100384.50;4375176;32;20014;-87
2022/10/10 12:30:57;;;;;;;;;;;;;;;21.86;60.39;100388.12;4378754;32;19989;-88
2022/10/10 12:33:26;;;;;;;;;;;;;;;22.09;60.40;100381.25;4341947;32;19995;-87
2022/10/10 12:35:52;;;;;;;;;;;;;;;22.19;60.41;100379.63;4379527;32;20268;-88